sensor_id;sensor_type;location;lat;lon;timestamp;pressure;altitude;pressure_sealevel;temperature;humidity
73422;BME280;61637;47.760;-122.022;2023-09-08T00:00:01;101591.7;;;19.6;67.0
73422;BME280;61637;47.760;-122.022;2023-09-08T00:02:01;101591.7;;;19.6;68.0
73422;BME280;61637;47.760;-122.022;2023-09-08T00:04:01;101591.7;;;19.6;68.0
73422;BME280;61637;47.760;-122.022;2023-09-08T00:06:01;101591.7;;;19.6;69.0
73422;BME280;61637;47.760;-122.022;2023-09-08T00:08:01;101591.7;;;19.6;67.0
73422;BME280;61637;47.760;-122.022;2023-09-08T00:10:01;101591.7;;;19.6;68.0
73422;BME280;61637;47.760;-122.022;2023-09-08T00:12:01;101591.7;;;19.6;67.0
73422;BME280;61637;47.760;-122.022;2023-09-08T00:14:01;101591.7;;;19.6;69.0
73422;BME280;61637;47.760;-122.022;2023-09-08T00:16:01;101591.7;;;19.5;67.0
73422;BME280;61637;47.760;-122.022;2023-09-08T00:18:01;101591.7;;;19.4;65.0
73422;BME280;61637;47.760;-122.022;2023-09-08T00:20:01;101591.7;;;19.4;66.0
73422;BME280;61637;47.760;-122.022;2023-09-08T00:22:01;101591.7;;;19.4;67.0
73422;BME280;61637;47.760;-122.022;2023-09-08T00:24:01;101591.7;;;19.4;67.0
73422;BME280;61637;47.760;-122.022;2023-09-08T00:26:01;101591.7;;;19.4;67.0
73422;BME280;61637;47.760;-122.022;2023-09-08T00:28:01;101591.7;;;19.4;68.0
73422;BME280;61637;47.760;-122.022;2023-09-08T00:30:01;101591.7;;;19.3;68.0
73422;BME280;61637;47.760;-122.022;2023-09-08T00:32:01;101591.7;;;19.3;68.0
73422;BME280;61637;47.760;-122.022;2023-09-08T00:34:01;101591.7;;;19.2;68.0
73422;BME280;61637;47.760;-122.022;2023-09-08T00:36:01;101591.7;;;19.2;68.0
73422;BME280;61637;47.760;-122.022;2023-09-08T00:38:01;101591.7;;;19.2;69.0
73422;BME280;61637;47.760;-122.022;2023-09-08T00:40:01;101591.7;;;19.2;69.0
73422;BME280;61637;47.760;-122.022;2023-09-08T00:42:01;101591.7;;;19.2;70.0
73422;BME280;61637;47.760;-122.022;2023-09-08T00:44:01;101591.7;;;19.2;69.0
73422;BME280;61637;47.760;-122.022;2023-09-08T00:46:01;101591.7;;;19.2;70.0
73422;BME280;61637;47.760;-122.022;2023-09-08T00:48:01;101591.7;;;19.2;71.0
73422;BME280;61637;47.760;-122.022;2023-09-08T00:50:01;101591.7;;;19.2;70.0
73422;BME280;61637;47.760;-122.022;2023-09-08T00:52:01;101591.7;;;19.2;70.0
73422;BME280;61637;47.760;-122.022;2023-09-08T00:54:01;101591.7;;;19.2;70.0
73422;BME280;61637;47.760;-122.022;2023-09-08T00:56:01;101591.7;;;19.2;71.0
73422;BME280;61637;47.760;-122.022;2023-09-08T00:58:01;101591.7;;;19.1;71.0
73422;BME280;61637;47.760;-122.022;2023-09-08T01:00:01;101591.7;;;19.1;71.0
73422;BME280;61637;47.760;-122.022;2023-09-08T01:02:01;101591.7;;;19.1;71.0
73422;BME280;61637;47.760;-122.022;2023-09-08T01:04:01;101591.7;;;19.1;71.0
73422;BME280;61637;47.760;-122.022;2023-09-08T01:06:01;101591.7;;;19.0;71.0
73422;BME280;61637;47.760;-122.022;2023-09-08T01:08:01;101591.7;;;18.9;71.0
73422;BME280;61637;47.760;-122.022;2023-09-08T01:10:01;101591.7;;;18.9;70.0
73422;BME280;61637;47.760;-122.022;2023-09-08T01:12:02;101591.7;;;18.9;70.0
73422;BME280;61637;47.760;-122.022;2023-09-08T01:14:01;101591.7;;;18.8;71.0
73422;BME280;61637;47.760;-122.022;2023-09-08T01:16:01;101591.7;;;18.8;69.0
73422;BME280;61637;47.760;-122.022;2023-09-08T01:18:01;101591.7;;;18.7;70.0
73422;BME280;61637;47.760;-122.022;2023-09-08T01:20:01;101591.7;;;18.7;71.0
73422;BME280;61637;47.760;-122.022;2023-09-08T01:22:11;101930.339;;;18.6;71.0
73422;BME280;61637;47.760;-122.022;2023-09-08T01:24:11;101930.339;;;18.6;70.0
73422;BME280;61637;47.760;-122.022;2023-09-08T01:26:03;101930.339;;;18.6;71.0
73422;BME280;61637;47.760;-122.022;2023-09-08T01:28:01;101930.339;;;18.6;71.0
73422;BME280;61637;47.760;-122.022;2023-09-08T01:30:01;101930.339;;;18.5;71.0
73422;BME280;61637;47.760;-122.022;2023-09-08T01:32:01;101591.7;;;18.4;71.0
73422;BME280;61637;47.760;-122.022;2023-09-08T01:34:01;101591.7;;;18.4;72.0
73422;BME280;61637;47.760;-122.022;2023-09-08T01:36:01;101591.7;;;18.4;71.0
73422;BME280;61637;47.760;-122.022;2023-09-08T01:38:01;101591.7;;;18.4;72.0
73422;BME280;61637;47.760;-122.022;2023-09-08T01:40:01;101591.7;;;18.4;71.0
73422;BME280;61637;47.760;-122.022;2023-09-08T01:42:01;101591.7;;;18.3;71.0
73422;BME280;61637;47.760;-122.022;2023-09-08T01:44:01;101591.7;;;18.3;71.0
73422;BME280;61637;47.760;-122.022;2023-09-08T01:46:01;101591.7;;;18.3;72.0
73422;BME280;61637;47.760;-122.022;2023-09-08T01:48:01;101591.7;;;18.2;72.0
73422;BME280;61637;47.760;-122.022;2023-09-08T01:50:01;101591.7;;;18.2;72.0
73422;BME280;61637;47.760;-122.022;2023-09-08T01:52:01;101591.7;;;18.2;73.0
73422;BME280;61637;47.760;-122.022;2023-09-08T01:54:01;101591.7;;;18.1;73.0
73422;BME280;61637;47.760;-122.022;2023-09-08T01:56:01;101591.7;;;18.1;73.0
73422;BME280;61637;47.760;-122.022;2023-09-08T01:58:01;101591.7;;;18.0;73.0
73422;BME280;61637;47.760;-122.022;2023-09-08T02:00:01;101591.7;;;18.0;73.0
73422;BME280;61637;47.760;-122.022;2023-09-08T02:02:01;101591.7;;;17.9;74.0
73422;BME280;61637;47.760;-122.022;2023-09-08T02:04:01;101591.7;;;17.9;73.0
73422;BME280;61637;47.760;-122.022;2023-09-08T02:06:01;101591.7;;;17.9;73.0
73422;BME280;61637;47.760;-122.022;2023-09-08T02:08:01;101591.7;;;17.9;73.0
73422;BME280;61637;47.760;-122.022;2023-09-08T02:10:01;101591.7;;;17.8;73.0
73422;BME280;61637;47.760;-122.022;2023-09-08T02:12:01;101591.7;;;17.8;73.0
73422;BME280;61637;47.760;-122.022;2023-09-08T02:14:01;101591.7;;;17.8;73.0
73422;BME280;61637;47.760;-122.022;2023-09-08T02:16:01;101930.339;;;17.8;73.0
73422;BME280;61637;47.760;-122.022;2023-09-08T02:18:01;101591.7;;;17.8;73.0
73422;BME280;61637;47.760;-122.022;2023-09-08T02:20:01;101930.339;;;17.8;74.0
73422;BME280;61637;47.760;-122.022;2023-09-08T02:22:01;101930.339;;;17.7;75.0
73422;BME280;61637;47.760;-122.022;2023-09-08T02:24:01;101930.339;;;17.7;74.0
73422;BME280;61637;47.760;-122.022;2023-09-08T02:26:01;101930.339;;;17.7;74.0
73422;BME280;61637;47.760;-122.022;2023-09-08T02:28:01;101930.339;;;17.7;74.0
73422;BME280;61637;47.760;-122.022;2023-09-08T02:30:01;101930.339;;;17.7;74.0
73422;BME280;61637;47.760;-122.022;2023-09-08T02:32:01;101930.339;;;17.6;75.0
73422;BME280;61637;47.760;-122.022;2023-09-08T02:34:01;101930.339;;;17.6;74.0
73422;BME280;61637;47.760;-122.022;2023-09-08T02:36:03;101591.7;;;17.6;75.0
73422;BME280;61637;47.760;-122.022;2023-09-08T02:38:01;101930.339;;;17.6;75.0
73422;BME280;61637;47.760;-122.022;2023-09-08T02:40:01;101930.339;;;17.6;75.0
73422;BME280;61637;47.760;-122.022;2023-09-08T02:42:01;101930.339;;;17.6;75.0
73422;BME280;61637;47.760;-122.022;2023-09-08T02:44:01;101930.339;;;17.5;75.0
73422;BME280;61637;47.760;-122.022;2023-09-08T02:46:01;101930.339;;;17.5;75.0
73422;BME280;61637;47.760;-122.022;2023-09-08T02:48:01;101930.339;;;17.4;75.0
73422;BME280;61637;47.760;-122.022;2023-09-08T02:50:01;101930.339;;;17.4;75.0
73422;BME280;61637;47.760;-122.022;2023-09-08T02:52:01;101930.339;;;17.4;75.0
73422;BME280;61637;47.760;-122.022;2023-09-08T02:54:01;101930.339;;;17.4;75.0
73422;BME280;61637;47.760;-122.022;2023-09-08T02:56:01;101930.339;;;17.3;74.0
73422;BME280;61637;47.760;-122.022;2023-09-08T02:58:01;101930.339;;;17.3;75.0
73422;BME280;61637;47.760;-122.022;2023-09-08T03:00:01;101930.339;;;17.3;74.0
73422;BME280;61637;47.760;-122.022;2023-09-08T03:02:01;101930.339;;;17.3;75.0
73422;BME280;61637;47.760;-122.022;2023-09-08T03:04:01;101930.339;;;17.2;75.0
73422;BME280;61637;47.760;-122.022;2023-09-08T03:06:01;101930.339;;;17.2;74.0
73422;BME280;61637;47.760;-122.022;2023-09-08T03:08:01;101930.339;;;17.1;75.0
73422;BME280;61637;47.760;-122.022;2023-09-08T03:10:01;101930.339;;;17.1;74.0
73422;BME280;61637;47.760;-122.022;2023-09-08T03:12:01;101930.339;;;17.1;75.0
73422;BME280;61637;47.760;-122.022;2023-09-08T03:14:01;101930.339;;;17.0;75.0
73422;BME280;61637;47.760;-122.022;2023-09-08T03:16:02;101930.339;;;16.9;76.0
73422;BME280;61637;47.760;-122.022;2023-09-08T03:18:01;101930.339;;;16.9;76.0
73422;BME280;61637;47.760;-122.022;2023-09-08T03:20:01;101930.339;;;16.9;76.0
73422;BME280;61637;47.760;-122.022;2023-09-08T03:22:01;101930.339;;;16.9;76.0
73422;BME280;61637;47.760;-122.022;2023-09-08T03:24:01;101930.339;;;16.8;75.0
73422;BME280;61637;47.760;-122.022;2023-09-08T03:26:01;101930.339;;;16.8;75.0
73422;BME280;61637;47.760;-122.022;2023-09-08T03:28:01;101930.339;;;16.8;76.0
73422;BME280;61637;47.760;-122.022;2023-09-08T03:30:01;101930.339;;;16.7;76.0
73422;BME280;61637;47.760;-122.022;2023-09-08T03:32:01;101930.339;;;16.7;76.0
73422;BME280;61637;47.760;-122.022;2023-09-08T03:34:01;101930.339;;;16.6;76.0
73422;BME280;61637;47.760;-122.022;2023-09-08T03:36:01;101930.339;;;16.5;76.0
73422;BME280;61637;47.760;-122.022;2023-09-08T03:38:01;101930.339;;;16.4;76.0
73422;BME280;61637;47.760;-122.022;2023-09-08T03:40:01;101930.339;;;16.4;76.0
73422;BME280;61637;47.760;-122.022;2023-09-08T03:42:01;101930.339;;;16.3;76.0
73422;BME280;61637;47.760;-122.022;2023-09-08T03:44:01;101930.339;;;16.3;76.0
73422;BME280;61637;47.760;-122.022;2023-09-08T03:46:01;101930.339;;;16.2;77.0
73422;BME280;61637;47.760;-122.022;2023-09-08T03:48:01;101930.339;;;16.1;77.0
73422;BME280;61637;47.760;-122.022;2023-09-08T03:50:01;101930.339;;;16.1;77.0
73422;BME280;61637;47.760;-122.022;2023-09-08T03:52:01;101930.339;;;16.1;77.0
73422;BME280;61637;47.760;-122.022;2023-09-08T03:54:01;101930.339;;;16.0;78.0
73422;BME280;61637;47.760;-122.022;2023-09-08T03:56:01;101930.339;;;16.0;78.0
73422;BME280;61637;47.760;-122.022;2023-09-08T03:58:01;101930.339;;;15.9;78.0
73422;BME280;61637;47.760;-122.022;2023-09-08T04:00:01;101930.339;;;15.9;78.0
73422;BME280;61637;47.760;-122.022;2023-09-08T04:02:01;101930.339;;;15.9;79.0
73422;BME280;61637;47.760;-122.022;2023-09-08T04:04:01;101930.339;;;15.9;78.0
73422;BME280;61637;47.760;-122.022;2023-09-08T04:06:01;101930.339;;;15.9;78.0
73422;BME280;61637;47.760;-122.022;2023-09-08T04:08:01;101930.339;;;15.9;79.0
73422;BME280;61637;47.760;-122.022;2023-09-08T04:10:01;101930.339;;;15.8;78.0
73422;BME280;61637;47.760;-122.022;2023-09-08T04:12:01;101930.339;;;15.8;78.0
73422;BME280;61637;47.760;-122.022;2023-09-08T04:14:01;101930.339;;;15.8;78.0
73422;BME280;61637;47.760;-122.022;2023-09-08T04:16:01;101930.339;;;15.8;79.0
73422;BME280;61637;47.760;-122.022;2023-09-08T04:18:01;101930.339;;;15.8;79.0
73422;BME280;61637;47.760;-122.022;2023-09-08T04:20:01;101930.339;;;15.8;79.0
73422;BME280;61637;47.760;-122.022;2023-09-08T04:22:01;101930.339;;;15.7;79.0
73422;BME280;61637;47.760;-122.022;2023-09-08T04:24:01;101930.339;;;15.7;79.0
73422;BME280;61637;47.760;-122.022;2023-09-08T04:26:01;101930.339;;;15.7;79.0
73422;BME280;61637;47.760;-122.022;2023-09-08T04:28:01;101930.339;;;15.7;79.0
73422;BME280;61637;47.760;-122.022;2023-09-08T04:30:01;101930.339;;;15.7;79.0
73422;BME280;61637;47.760;-122.022;2023-09-08T04:32:01;101930.339;;;15.7;80.0
73422;BME280;61637;47.760;-122.022;2023-09-08T04:34:01;101930.339;;;15.7;79.0
73422;BME280;61637;47.760;-122.022;2023-09-08T04:36:01;101930.339;;;15.7;79.0
73422;BME280;61637;47.760;-122.022;2023-09-08T04:38:01;101930.339;;;15.7;79.0
73422;BME280;61637;47.760;-122.022;2023-09-08T04:40:01;101930.339;;;15.6;79.0
73422;BME280;61637;47.760;-122.022;2023-09-08T04:42:01;101930.339;;;15.6;78.0
73422;BME280;61637;47.760;-122.022;2023-09-08T04:44:01;101930.339;;;15.7;79.0
73422;BME280;61637;47.760;-122.022;2023-09-08T04:46:01;101930.339;;;15.7;79.0
73422;BME280;61637;47.760;-122.022;2023-09-08T04:48:01;101930.339;;;15.6;79.0
73422;BME280;61637;47.760;-122.022;2023-09-08T04:50:01;101930.339;;;15.6;80.0
73422;BME280;61637;47.760;-122.022;2023-09-08T04:52:01;101930.339;;;15.6;80.0
73422;BME280;61637;47.760;-122.022;2023-09-08T04:54:01;101930.339;;;15.6;80.0
73422;BME280;61637;47.760;-122.022;2023-09-08T04:56:01;101930.339;;;15.6;80.0
73422;BME280;61637;47.760;-122.022;2023-09-08T04:58:01;101930.339;;;15.5;80.0
73422;BME280;61637;47.760;-122.022;2023-09-08T05:00:01;101930.339;;;15.5;79.0
73422;BME280;61637;47.760;-122.022;2023-09-08T05:02:01;101930.339;;;15.4;79.0
73422;BME280;61637;47.760;-122.022;2023-09-08T05:04:01;101930.339;;;15.4;79.0
73422;BME280;61637;47.760;-122.022;2023-09-08T05:06:01;101930.339;;;15.4;80.0
73422;BME280;61637;47.760;-122.022;2023-09-08T05:08:01;101930.339;;;15.3;80.0
73422;BME280;61637;47.760;-122.022;2023-09-08T05:10:01;101930.339;;;15.3;80.0
73422;BME280;61637;47.760;-122.022;2023-09-08T05:12:01;101930.339;;;15.3;80.0
73422;BME280;61637;47.760;-122.022;2023-09-08T05:14:01;101930.339;;;15.3;80.0
73422;BME280;61637;47.760;-122.022;2023-09-08T05:16:01;101930.339;;;15.2;80.0
73422;BME280;61637;47.760;-122.022;2023-09-08T05:18:01;101930.339;;;15.2;80.0
73422;BME280;61637;47.760;-122.022;2023-09-08T05:20:01;101930.339;;;15.2;80.0
73422;BME280;61637;47.760;-122.022;2023-09-08T05:22:01;101930.339;;;15.1;80.0
73422;BME280;61637;47.760;-122.022;2023-09-08T05:24:01;101930.339;;;15.1;80.0
73422;BME280;61637;47.760;-122.022;2023-09-08T05:26:01;101930.339;;;15.1;80.0
73422;BME280;61637;47.760;-122.022;2023-09-08T05:28:01;101930.339;;;15.0;80.0
73422;BME280;61637;47.760;-122.022;2023-09-08T05:30:01;101930.339;;;15.0;80.0
73422;BME280;61637;47.760;-122.022;2023-09-08T05:32:01;101930.339;;;14.9;80.0
73422;BME280;61637;47.760;-122.022;2023-09-08T05:34:01;101930.339;;;14.9;80.0
73422;BME280;61637;47.760;-122.022;2023-09-08T05:36:01;101930.339;;;14.9;81.0
73422;BME280;61637;47.760;-122.022;2023-09-08T05:38:01;101930.339;;;14.9;80.0
73422;BME280;61637;47.760;-122.022;2023-09-08T05:40:01;101930.339;;;14.9;81.0
73422;BME280;61637;47.760;-122.022;2023-09-08T05:42:01;101930.339;;;14.8;80.0
73422;BME280;61637;47.760;-122.022;2023-09-08T05:44:01;101930.339;;;14.8;81.0
73422;BME280;61637;47.760;-122.022;2023-09-08T05:46:01;101930.339;;;14.8;81.0
73422;BME280;61637;47.760;-122.022;2023-09-08T05:48:01;101930.339;;;14.8;81.0
73422;BME280;61637;47.760;-122.022;2023-09-08T05:50:01;101930.339;;;14.8;81.0
73422;BME280;61637;47.760;-122.022;2023-09-08T05:52:01;101930.339;;;14.7;81.0
73422;BME280;61637;47.760;-122.022;2023-09-08T05:54:01;101930.339;;;14.7;81.0
73422;BME280;61637;47.760;-122.022;2023-09-08T05:56:01;101930.339;;;14.7;80.0
73422;BME280;61637;47.760;-122.022;2023-09-08T05:58:01;101930.339;;;14.6;81.0
73422;BME280;61637;47.760;-122.022;2023-09-08T06:00:01;101930.339;;;14.6;81.0
73422;BME280;61637;47.760;-122.022;2023-09-08T06:02:01;101930.339;;;14.6;81.0
73422;BME280;61637;47.760;-122.022;2023-09-08T06:04:01;101930.339;;;14.5;81.0
73422;BME280;61637;47.760;-122.022;2023-09-08T06:06:01;101930.339;;;14.4;81.0
73422;BME280;61637;47.760;-122.022;2023-09-08T06:08:01;101930.339;;;14.4;81.0
73422;BME280;61637;47.760;-122.022;2023-09-08T06:10:01;101930.339;;;14.3;81.0
73422;BME280;61637;47.760;-122.022;2023-09-08T06:12:01;101930.339;;;14.3;82.0
73422;BME280;61637;47.760;-122.022;2023-09-08T06:14:01;101930.339;;;14.3;82.0
73422;BME280;61637;47.760;-122.022;2023-09-08T06:16:01;101930.339;;;14.2;82.0
73422;BME280;61637;47.760;-122.022;2023-09-08T06:18:01;101930.339;;;14.2;82.0
73422;BME280;61637;47.760;-122.022;2023-09-08T06:20:01;101930.339;;;14.2;82.0
73422;BME280;61637;47.760;-122.022;2023-09-08T06:22:01;101930.339;;;14.1;82.0
73422;BME280;61637;47.760;-122.022;2023-09-08T06:24:01;101930.339;;;14.1;83.0
73422;BME280;61637;47.760;-122.022;2023-09-08T06:26:01;101930.339;;;14.1;83.0
73422;BME280;61637;47.760;-122.022;2023-09-08T06:28:01;101930.339;;;14.0;83.0
73422;BME280;61637;47.760;-122.022;2023-09-08T06:30:01;101930.339;;;13.9;83.0
73422;BME280;61637;47.760;-122.022;2023-09-08T06:32:01;101930.339;;;13.9;83.0
73422;BME280;61637;47.760;-122.022;2023-09-08T06:34:01;101930.339;;;13.9;84.0
73422;BME280;61637;47.760;-122.022;2023-09-08T06:36:01;101930.339;;;13.8;84.0
73422;BME280;61637;47.760;-122.022;2023-09-08T06:38:01;101930.339;;;13.8;84.0
73422;BME280;61637;47.760;-122.022;2023-09-08T06:40:01;101930.339;;;13.8;84.0
73422;BME280;61637;47.760;-122.022;2023-09-08T06:42:01;101930.339;;;13.7;84.0
73422;BME280;61637;47.760;-122.022;2023-09-08T06:44:01;101930.339;;;13.7;85.0
73422;BME280;61637;47.760;-122.022;2023-09-08T06:46:01;101930.339;;;13.7;85.0
73422;BME280;61637;47.760;-122.022;2023-09-08T06:48:01;101930.339;;;13.7;85.0
73422;BME280;61637;47.760;-122.022;2023-09-08T06:50:01;101930.339;;;13.6;85.0
73422;BME280;61637;47.760;-122.022;2023-09-08T06:52:01;101930.339;;;13.6;85.0
73422;BME280;61637;47.760;-122.022;2023-09-08T06:54:01;101930.339;;;13.5;85.0
73422;BME280;61637;47.760;-122.022;2023-09-08T06:56:01;101930.339;;;13.4;85.0
73422;BME280;61637;47.760;-122.022;2023-09-08T06:58:01;101930.339;;;13.4;85.0
73422;BME280;61637;47.760;-122.022;2023-09-08T07:00:01;101930.339;;;13.4;85.0
73422;BME280;61637;47.760;-122.022;2023-09-08T07:02:01;101930.339;;;13.3;85.0
73422;BME280;61637;47.760;-122.022;2023-09-08T07:04:01;101930.339;;;13.3;85.0
73422;BME280;61637;47.760;-122.022;2023-09-08T07:06:01;101930.339;;;13.3;86.0
73422;BME280;61637;47.760;-122.022;2023-09-08T07:08:01;101930.339;;;13.2;86.0
73422;BME280;61637;47.760;-122.022;2023-09-08T07:10:01;101930.339;;;13.2;86.0
73422;BME280;61637;47.760;-122.022;2023-09-08T07:12:01;101930.339;;;13.1;86.0
73422;BME280;61637;47.760;-122.022;2023-09-08T07:14:01;101930.339;;;13.1;86.0
73422;BME280;61637;47.760;-122.022;2023-09-08T07:16:01;101930.339;;;13.0;87.0
73422;BME280;61637;47.760;-122.022;2023-09-08T07:18:01;101930.339;;;12.9;87.0
73422;BME280;61637;47.760;-122.022;2023-09-08T07:20:01;101930.339;;;12.9;87.0
73422;BME280;61637;47.760;-122.022;2023-09-08T07:22:01;101930.339;;;12.8;87.0
73422;BME280;61637;47.760;-122.022;2023-09-08T07:24:01;101930.339;;;12.8;87.0
73422;BME280;61637;47.760;-122.022;2023-09-08T07:26:01;101930.339;;;12.7;87.0
73422;BME280;61637;47.760;-122.022;2023-09-08T07:28:01;101930.339;;;12.7;87.0
73422;BME280;61637;47.760;-122.022;2023-09-08T07:30:01;101930.339;;;12.7;87.0
73422;BME280;61637;47.760;-122.022;2023-09-08T07:32:01;101930.339;;;12.6;88.0
73422;BME280;61637;47.760;-122.022;2023-09-08T07:34:01;101930.339;;;12.6;88.0
73422;BME280;61637;47.760;-122.022;2023-09-08T07:36:03;101930.339;;;12.5;88.0
73422;BME280;61637;47.760;-122.022;2023-09-08T07:38:01;101930.339;;;12.5;88.0
73422;BME280;61637;47.760;-122.022;2023-09-08T07:40:01;101930.339;;;12.4;88.0
73422;BME280;61637;47.760;-122.022;2023-09-08T07:42:01;101930.339;;;12.4;88.0
73422;BME280;61637;47.760;-122.022;2023-09-08T07:44:01;101930.339;;;12.3;88.0
73422;BME280;61637;47.760;-122.022;2023-09-08T07:46:01;101930.339;;;12.3;89.0
73422;BME280;61637;47.760;-122.022;2023-09-08T07:48:01;101930.339;;;12.3;89.0
73422;BME280;61637;47.760;-122.022;2023-09-08T07:52:01;101930.339;;;12.2;89.0
73422;BME280;61637;47.760;-122.022;2023-09-08T07:54:01;101930.339;;;12.2;89.0
73422;BME280;61637;47.760;-122.022;2023-09-08T07:56:01;101930.339;;;12.2;89.0
73422;BME280;61637;47.760;-122.022;2023-09-08T07:58:01;101930.339;;;12.1;89.0
73422;BME280;61637;47.760;-122.022;2023-09-08T08:00:01;101930.339;;;12.1;89.0
73422;BME280;61637;47.760;-122.022;2023-09-08T08:02:01;101930.339;;;12.1;90.0
73422;BME280;61637;47.760;-122.022;2023-09-08T08:04:01;101930.339;;;12.1;90.0
73422;BME280;61637;47.760;-122.022;2023-09-08T08:06:01;101930.339;;;12.0;90.0
73422;BME280;61637;47.760;-122.022;2023-09-08T08:08:01;101930.339;;;12.0;90.0
73422;BME280;61637;47.760;-122.022;2023-09-08T08:10:01;101930.339;;;11.9;90.0
73422;BME280;61637;47.760;-122.022;2023-09-08T08:12:01;101930.339;;;11.9;90.0
73422;BME280;61637;47.760;-122.022;2023-09-08T08:14:01;101930.339;;;11.9;90.0
73422;BME280;61637;47.760;-122.022;2023-09-08T08:16:01;101930.339;;;11.9;90.0
73422;BME280;61637;47.760;-122.022;2023-09-08T08:18:01;101930.339;;;11.9;90.0
73422;BME280;61637;47.760;-122.022;2023-09-08T08:20:01;101930.339;;;11.8;90.0
73422;BME280;61637;47.760;-122.022;2023-09-08T08:22:01;101930.339;;;11.8;91.0
73422;BME280;61637;47.760;-122.022;2023-09-08T08:24:01;101930.339;;;11.8;90.0
73422;BME280;61637;47.760;-122.022;2023-09-08T08:26:01;101930.339;;;11.8;91.0
73422;BME280;61637;47.760;-122.022;2023-09-08T08:28:01;101930.339;;;11.8;91.0
73422;BME280;61637;47.760;-122.022;2023-09-08T08:30:01;101930.339;;;11.8;91.0
73422;BME280;61637;47.760;-122.022;2023-09-08T08:32:01;101930.339;;;11.7;91.0
73422;BME280;61637;47.760;-122.022;2023-09-08T08:34:01;101930.339;;;11.7;91.0
73422;BME280;61637;47.760;-122.022;2023-09-08T08:36:01;101930.339;;;11.7;91.0
73422;BME280;61637;47.760;-122.022;2023-09-08T08:38:01;101930.339;;;11.7;91.0
73422;BME280;61637;47.760;-122.022;2023-09-08T08:40:01;101930.339;;;11.6;91.0
73422;BME280;61637;47.760;-122.022;2023-09-08T08:42:06;101930.339;;;11.6;91.0
73422;BME280;61637;47.760;-122.022;2023-09-08T08:44:01;101930.339;;;11.6;91.0
73422;BME280;61637;47.760;-122.022;2023-09-08T08:46:01;101930.339;;;11.6;92.0
73422;BME280;61637;47.760;-122.022;2023-09-08T08:48:01;101930.339;;;11.6;92.0
73422;BME280;61637;47.760;-122.022;2023-09-08T08:50:01;101930.339;;;11.6;92.0
73422;BME280;61637;47.760;-122.022;2023-09-08T08:52:01;101930.339;;;11.6;92.0
73422;BME280;61637;47.760;-122.022;2023-09-08T08:54:01;101930.339;;;11.6;92.0
73422;BME280;61637;47.760;-122.022;2023-09-08T08:56:01;101930.339;;;11.5;92.0
73422;BME280;61637;47.760;-122.022;2023-09-08T08:58:02;101930.339;;;11.5;92.0
73422;BME280;61637;47.760;-122.022;2023-09-08T09:00:01;101930.339;;;11.6;92.0
73422;BME280;61637;47.760;-122.022;2023-09-08T09:02:01;101930.339;;;11.5;92.0
73422;BME280;61637;47.760;-122.022;2023-09-08T09:04:01;101930.339;;;11.5;92.0
73422;BME280;61637;47.760;-122.022;2023-09-08T09:06:01;101930.339;;;11.5;92.0
73422;BME280;61637;47.760;-122.022;2023-09-08T09:08:01;101930.339;;;11.5;92.0
73422;BME280;61637;47.760;-122.022;2023-09-08T09:10:01;101930.339;;;11.5;92.0
73422;BME280;61637;47.760;-122.022;2023-09-08T09:12:01;101930.339;;;11.4;92.0
73422;BME280;61637;47.760;-122.022;2023-09-08T09:14:01;101930.339;;;11.4;92.0
73422;BME280;61637;47.760;-122.022;2023-09-08T09:16:01;101930.339;;;11.4;92.0
73422;BME280;61637;47.760;-122.022;2023-09-08T09:18:02;101930.339;;;11.4;92.0
73422;BME280;61637;47.760;-122.022;2023-09-08T09:22:01;101930.339;;;11.4;93.0
73422;BME280;61637;47.760;-122.022;2023-09-08T09:24:01;101930.339;;;11.4;92.0
73422;BME280;61637;47.760;-122.022;2023-09-08T09:26:01;101930.339;;;11.4;93.0
73422;BME280;61637;47.760;-122.022;2023-09-08T09:28:02;101930.339;;;11.4;93.0
73422;BME280;61637;47.760;-122.022;2023-09-08T09:30:01;101930.339;;;11.4;93.0
73422;BME280;61637;47.760;-122.022;2023-09-08T09:32:02;101930.339;;;11.4;93.0
73422;BME280;61637;47.760;-122.022;2023-09-08T09:34:01;101930.339;;;11.4;93.0
73422;BME280;61637;47.760;-122.022;2023-09-08T09:36:01;101930.339;;;11.4;93.0
73422;BME280;61637;47.760;-122.022;2023-09-08T09:38:01;101930.339;;;11.4;93.0
73422;BME280;61637;47.760;-122.022;2023-09-08T09:40:01;101930.339;;;11.3;93.0
73422;BME280;61637;47.760;-122.022;2023-09-08T09:42:01;101930.339;;;11.3;92.0
73422;BME280;61637;47.760;-122.022;2023-09-08T09:44:01;101930.339;;;11.3;92.0
73422;BME280;61637;47.760;-122.022;2023-09-08T09:46:01;101930.339;;;11.3;92.0
73422;BME280;61637;47.760;-122.022;2023-09-08T09:48:02;101930.339;;;11.3;93.0
73422;BME280;61637;47.760;-122.022;2023-09-08T09:50:01;101930.339;;;11.3;93.0
73422;BME280;61637;47.760;-122.022;2023-09-08T09:52:01;101930.339;;;11.3;93.0
73422;BME280;61637;47.760;-122.022;2023-09-08T09:54:01;101930.339;;;11.3;93.0
73422;BME280;61637;47.760;-122.022;2023-09-08T09:56:01;101930.339;;;11.2;92.0
73422;BME280;61637;47.760;-122.022;2023-09-08T09:58:01;101930.339;;;11.2;92.0
73422;BME280;61637;47.760;-122.022;2023-09-08T10:00:01;101930.339;;;11.2;93.0
73422;BME280;61637;47.760;-122.022;2023-09-08T10:02:01;101930.339;;;11.2;93.0
73422;BME280;61637;47.760;-122.022;2023-09-08T10:04:01;101930.339;;;11.1;92.0
73422;BME280;61637;47.760;-122.022;2023-09-08T10:06:02;101930.339;;;11.1;92.0
73422;BME280;61637;47.760;-122.022;2023-09-08T10:08:01;101930.339;;;11.1;93.0
73422;BME280;61637;47.760;-122.022;2023-09-08T10:10:01;101930.339;;;11.0;93.0
73422;BME280;61637;47.760;-122.022;2023-09-08T10:12:03;101930.339;;;11.0;93.0
73422;BME280;61637;47.760;-122.022;2023-09-08T10:14:01;101930.339;;;11.0;93.0
73422;BME280;61637;47.760;-122.022;2023-09-08T10:16:01;101930.339;;;10.9;93.0
73422;BME280;61637;47.760;-122.022;2023-09-08T10:18:03;101930.339;;;10.9;93.0